Time;durP1;ratioP1;P1;durP2;ratioP2;P2;SDS_P1;SDS_P2;PMS_P1;PMS_P2;Temp;Humidity;BMP_temperature;BMP_pressure;BME280_temperature;BME280_humidity;BME280_pressure;Samples;Min_cycle;Max_cycle;Signal;HPM_P1;HPM_P2
2023/10/22 00:02:05;;;;;;;15.40;6.75;;;;;;;;;;4999555;28;20060;-68
2023/10/22 00:04:31;;;;;;;15.25;5.78;;;;;;;;;;4990156;28;20111;-69
2023/10/22 00:06:58;;;;;;;14.32;6.32;;;;;;;;;;5009737;28;20041;-68
2023/10/22 00:09:24;;;;;;;13.60;5.93;;;;;;;;;;5020495;28;20580;-67
2023/10/22 00:11:50;;;;;;;;;;;;;;;;;;5024631;28;20037;-68
2023/10/22 00:14:16;;;;;;;12.43;5.05;;;;;;;;;;5010149;28;19919;-68
2023/10/22 00:16:42;;;;;;;12.57;4.75;;;;;;;;;;5025361;28;20439;-67
2023/10/22 00:19:08;;;;;;;;;;;;;;;;;;5023475;28;20490;-67
2023/10/22 00:21:35;;;;;;;13.02;4.80;;;;;;;;;;5021037;28;19916;-68
2023/10/22 00:24:00;;;;;;;;;;;;;;;;;;5009834;28;20539;-69
2023/10/22 00:26:27;;;;;;;11.88;4.38;;;;;;;;;;5022923;28;19916;-67
2023/10/22 00:28:53;;;;;;;;;;;;;;;;;;5026327;28;20033;-67
2023/10/22 00:31:19;;;;;;;10.50;4.15;;;;;;;;;;5020843;28;20324;-67
2023/10/22 00:33:45;;;;;;;;;;;;;;;;;;5007250;28;20549;-67
2023/10/22 00:36:11;;;;;;;10.70;3.95;;;;;;;;;;5020656;28;20411;-67
2023/10/22 00:38:37;;;;;;;;;;;;;;;;;;5005199;28;20033;-69
2023/10/22 00:41:03;;;;;;;10.07;3.75;;;;;;;;;;4991217;28;20200;-67
2023/10/22 00:43:29;;;;;;;;;;;;;;;;;;4984833;28;20191;-67
2023/10/22 00:45:55;;;;;;;10.60;3.67;;;;;;;;;;4984191;28;19928;-67
2023/10/22 00:48:22;;;;;;;8.68;2.92;;;;;;;;;;4981576;28;20139;-68
2023/10/22 00:50:48;;;;;;;8.77;3.00;;;;;;;;;;4966592;28;20021;-67
2023/10/22 00:53:16;;;;;;;8.27;2.45;;;;;;;;;;4984868;28;20433;-67
2023/10/22 00:55:45;;;;;;;9.63;2.75;;;;;;;;;;4972830;28;20139;-67
2023/10/22 00:58:12;;;;;;;7.13;2.13;;;;;;;;;;4984026;28;20051;-68
2023/10/22 01:00:39;;;;;;;6.43;1.90;;;;;;;;;;4980226;28;20720;-68
2023/10/22 01:03:05;;;;;;;8.15;2.15;;;;;;;;;;4968956;28;20092;-67
2023/10/22 01:05:32;;;;;;;8.45;1.92;;;;;;;;;;4964389;28;20106;-67
2023/10/22 01:07:58;;;;;;;9.00;2.38;;;;;;;;;;4984166;28;20029;-68
2023/10/22 01:10:25;;;;;;;7.28;2.30;;;;;;;;;;4984281;28;20028;-67
2023/10/22 01:12:51;;;;;;;;;;;;;;;;;;4970322;28;20056;-67
2023/10/22 01:15:17;;;;;;;10.07;3.30;;;;;;;;;;4987617;28;20351;-66
2023/10/22 01:17:43;;;;;;;9.35;3.10;;;;;;;;;;5005159;28;20064;-67
2023/10/22 01:20:09;;;;;;;;;;;;;;;;;;5026041;28;20029;-68
2023/10/22 01:22:35;;;;;;;9.93;2.88;;;;;;;;;;5001559;28;20502;-67
2023/10/22 01:25:01;;;;;;;;;;;;;;;;;;5020196;28;20041;-68
2023/10/22 01:27:27;;;;;;;9.18;2.78;;;;;;;;;;5019227;28;20013;-67
2023/10/22 01:29:53;;;;;;;;;;;;;;;;;;5024691;28;20349;-67
2023/10/22 01:32:20;;;;;;;8.68;2.70;;;;;;;;;;5020717;28;19966;-68
2023/10/22 01:34:45;;;;;;;;;;;;;;;;;;5024471;28;20035;-67
2023/10/22 01:37:12;;;;;;;7.63;2.67;;;;;;;;;;5027630;28;19928;-67
2023/10/22 01:39:38;;;;;;;8.38;2.60;;;;;;;;;;5006023;28;20041;-68
2023/10/22 01:42:04;;;;;;;7.65;2.28;;;;;;;;;;5031836;28;20104;-67
2023/10/22 01:44:30;;;;;;;7.00;2.40;;;;;;;;;;5022978;28;20036;-67
2023/10/22 01:46:56;;;;;;;;;;;;;;;;;;5026206;28;20036;-67
2023/10/22 01:49:22;;;;;;;7.72;2.28;;;;;;;;;;5021183;28;19913;-67
2023/10/22 01:51:49;;;;;;;;;;;;;;;;;;5007105;28;20029;-67
2023/10/22 01:54:15;;;;;;;8.98;2.50;;;;;;;;;;5019717;28;19951;-69
2023/10/22 01:56:41;;;;;;;6.90;2.00;;;;;;;;;;5024146;28;20033;-66
2023/10/22 01:59:08;;;;;;;7.53;2.17;;;;;;;;;;5026910;28;20036;-67
2023/10/22 02:01:34;;;;;;;;;;;;;;;;;;5001998;28;20022;-69
2023/10/22 02:04:00;;;;;;;7.18;2.30;;;;;;;;;;5005023;28;20220;-67
2023/10/22 02:06:26;;;;;;;;;;;;;;;;;;5014853;28;20046;-68
2023/10/22 02:08:52;;;;;;;7.32;2.05;;;;;;;;;;5007934;28;19913;-69
2023/10/22 02:11:18;;;;;;;;;;;;;;;;;;5018431;28;20108;-67
2023/10/22 02:13:44;;;;;;;8.07;1.98;;;;;;;;;;5023744;28;19916;-68
2023/10/22 02:16:10;;;;;;;;;;;;;;;;;;5005478;28;20376;-67
2023/10/22 02:18:36;;;;;;;7.43;1.80;;;;;;;;;;5016961;28;19920;-69
2023/10/22 02:21:05;;;;;;;;;;;;;;;;;;5024265;28;20041;-66
2023/10/22 02:23:32;;;;;;;7.28;1.77;;;;;;;;;;5021162;28;20476;-66
2023/10/22 02:25:58;;;;;;;;;;;;;;;;;;5028099;28;20148;-67
2023/10/22 02:28:24;;;;;;;7.43;1.75;;;;;;;;;;5004994;28;19920;-66
2023/10/22 02:30:50;;;;;;;;;;;;;;;;;;5023317;28;20291;-68
2023/10/22 02:33:17;;;;;;;5.90;1.52;;;;;;;;;;4998684;28;19913;-72
2023/10/22 02:35:44;;;;;;;6.63;1.50;;;;;;;;;;5022931;28;20584;-69
2023/10/22 02:38:15;;;;;;;6.10;1.42;;;;;;;;;;5022078;28;20036;-66
2023/10/22 02:40:42;;;;;;;6.93;1.20;;;;;;;;;;5022594;28;20471;-66
2023/10/22 02:43:08;;;;;;;7.90;1.60;;;;;;;;;;5018742;28;20053;-68
2023/10/22 02:45:34;;;;;;;7.05;1.50;;;;;;;;;;5020071;28;20033;-67
2023/10/22 02:48:01;;;;;;;5.53;1.52;;;;;;;;;;5006094;28;20515;-67
2023/10/22 02:50:27;;;;;;;5.57;1.30;;;;;;;;;;5020459;28;20033;-67
2023/10/22 02:52:55;;;;;;;6.85;1.70;;;;;;;;;;5024898;28;20037;-67
2023/10/22 02:55:21;;;;;;;5.97;1.77;;;;;;;;;;4993803;28;20322;-67
2023/10/22 02:57:47;;;;;;;;;;;;;;;;;;5020076;28;20040;-67
2023/10/22 03:00:14;;;;;;;10.20;2.15;;;;;;;;;;5022457;28;20539;-67
2023/10/22 03:02:41;;;;;;;7.55;2.10;;;;;;;;;;5022501;28;20039;-67
2023/10/22 03:05:07;;;;;;;5.88;1.73;;;;;;;;;;5020570;28;20037;-67
2023/10/22 03:07:33;;;;;;;6.88;1.90;;;;;;;;;;5021534;28;20208;-67
2023/10/22 03:09:59;;;;;;;;;;;;;;;;;;5023041;28;20380;-67
2023/10/22 03:12:26;;;;;;;7.65;2.05;;;;;;;;;;4996192;28;19917;-67
2023/10/22 03:14:52;;;;;;;7.80;1.80;;;;;;;;;;5006948;28;20395;-67
2023/10/22 03:17:19;;;;;;;6.80;1.80;;;;;;;;;;5004329;28;20433;-67
2023/10/22 03:19:45;;;;;;;7.35;1.73;;;;;;;;;;5020836;28;20333;-67
2023/10/22 03:22:11;;;;;;;;;;;;;;;;;;5018866;28;20328;-67
2023/10/22 03:24:38;;;;;;;7.95;2.10;;;;;;;;;;5019814;28;19925;-68
2023/10/22 03:27:05;;;;;;;7.28;2.00;;;;;;;;;;5023293;28;20083;-67
2023/10/22 03:29:31;;;;;;;6.78;1.80;;;;;;;;;;5019771;28;20025;-67
2023/10/22 03:31:58;;;;;;;6.32;1.65;;;;;;;;;;5017798;28;20318;-67
2023/10/22 03:34:24;;;;;;;7.18;1.80;;;;;;;;;;5016099;28;20036;-67
2023/10/22 03:36:50;;;;;;;6.25;1.70;;;;;;;;;;5020074;28;20028;-67
2023/10/22 03:39:17;;;;;;;;;;;;;;;;;;5017157;28;20139;-67
2023/10/22 03:41:44;;;;;;;5.30;1.58;;;;;;;;;;5023530;28;20636;-67
2023/10/22 03:44:10;;;;;;;8.25;1.70;;;;;;;;;;5001020;28;20039;-67
2023/10/22 03:46:36;;;;;;;;;;;;;;;;;;5017283;28;20101;-67
2023/10/22 03:49:02;;;;;;;8.07;2.00;;;;;;;;;;5022366;28;19999;-67
2023/10/22 03:51:28;;;;;;;;;;;;;;;;;;5015237;28;20918;-67
2023/10/22 03:53:56;;;;;;;8.63;2.10;;;;;;;;;;5018424;28;20375;-67
2023/10/22 03:56:22;;;;;;;6.80;1.73;;;;;;;;;;5018517;28;20071;-68
2023/10/22 03:58:49;;;;;;;8.10;1.60;;;;;;;;;;5021319;28;20061;-67
2023/10/22 04:01:14;;;;;;;;;;;;;;;;;;5021403;28;20033;-67
2023/10/22 04:03:41;;;;;;;7.55;1.70;;;;;;;;;;5018032;28;19923;-67
2023/10/22 04:06:07;;;;;;;6.30;1.70;;;;;;;;;;5022733;28;20112;-67
2023/10/22 04:08:33;;;;;;;;;;;;;;;;;;5020196;28;20063;-68
2023/10/22 04:11:01;;;;;;;6.65;1.45;;;;;;;;;;5024763;28;20019;-67
2023/10/22 04:13:27;;;;;;;6.80;1.40;;;;;;;;;;5021506;28;20075;-67
2023/10/22 04:15:53;;;;;;;;;;;;;;;;;;5023301;28;20525;-69
2023/10/22 04:18:19;;;;;;;7.78;1.40;;;;;;;;;;5024717;28;19913;-68
2023/10/22 04:20:45;;;;;;;;;;;;;;;;;;5023398;28;20205;-68
2023/10/22 04:23:11;;;;;;;4.50;1.40;;;;;;;;;;5008604;28;19913;-68
2023/10/22 04:25:39;;;;;;;;;;;;;;;;;;5023559;28;20261;-67
2023/10/22 04:28:06;;;;;;;6.07;1.40;;;;;;;;;;5008282;28;19919;-66
2023/10/22 04:30:33;;;;;;;6.30;1.40;;;;;;;;;;5002525;28;20608;-66
2023/10/22 04:32:59;;;;;;;5.57;1.42;;;;;;;;;;5024865;28;20036;-66
2023/10/22 04:35:25;;;;;;;6.78;1.55;;;;;;;;;;5019631;28;20021;-66
2023/10/22 04:37:54;;;;;;;6.20;1.80;;;;;;;;;;5025918;28;20036;-67
2023/10/22 04:40:20;;;;;;;5.70;1.40;;;;;;;;;;5017754;28;20824;-67
2023/10/22 04:42:46;;;;;;;;;;;;;;;;;;5005728;28;20791;-67
2023/10/22 04:45:12;;;;;;;6.53;1.88;;;;;;;;;;5026043;28;20450;-67
2023/10/22 04:47:38;;;;;;;6.25;1.50;;;;;;;;;;5020604;28;20025;-67
2023/10/22 04:50:04;;;;;;;;;;;;;;;;;;5010131;28;20130;-67
2023/10/22 04:52:31;;;;;;;6.97;1.83;;;;;;;;;;5021981;28;20350;-67
2023/10/22 04:54:58;;;;;;;7.22;1.67;;;;;;;;;;5024939;28;20044;-67
2023/10/22 04:57:25;;;;;;;8.82;1.98;;;;;;;;;;5021919;28;20040;-68
2023/10/22 04:59:51;;;;;;;6.07;1.52;;;;;;;;;;5005816;28;20113;-67
2023/10/22 05:02:17;;;;;;;;;;;;;;;;;;5022570;28;20314;-67
2023/10/22 05:04:46;;;;;;;6.07;1.65;;;;;;;;;;5023559;28;19989;-68
2023/10/22 05:07:12;;;;;;;6.60;1.90;;;;;;;;;;5020600;28;20024;-68
2023/10/22 05:09:38;;;;;;;;;;;;;;;;;;5007101;28;20448;-68
2023/10/22 05:12:04;;;;;;;6.10;1.67;;;;;;;;;;5027873;28;19931;-68
2023/10/22 05:14:31;;;;;;;4.75;1.45;;;;;;;;;;5008465;28;20431;-68
2023/10/22 05:16:57;;;;;;;6.47;1.52;;;;;;;;;;5023656;28;20055;-68
2023/10/22 05:19:23;;;;;;;;;;;;;;;;;;5005107;28;20553;-68
2023/10/22 05:21:49;;;;;;;6.20;1.73;;;;;;;;;;5008102;28;20027;-68
2023/10/22 05:24:15;;;;;;;;;;;;;;;;;;5021990;28;20438;-68
2023/10/22 05:26:41;;;;;;;5.53;1.40;;;;;;;;;;5024304;28;19919;-69
2023/10/22 05:29:07;;;;;;;;;;;;;;;;;;5022855;28;20479;-68
2023/10/22 05:31:33;;;;;;;8.48;1.52;;;;;;;;;;5014970;28;19923;-69
2023/10/22 05:34:00;;;;;;;5.15;1.50;;;;;;;;;;5005603;28;20033;-69
2023/10/22 05:36:26;;;;;;;;;;;;;;;;;;5022076;28;20022;-66
2023/10/22 05:38:52;;;;;;;7.25;1.40;;;;;;;;;;5022038;28;19952;-66
2023/10/22 05:41:18;;;;;;;;;;;;;;;;;;5004864;28;20119;-66
2023/10/22 05:43:44;;;;;;;5.60;1.30;;;;;;;;;;5020208;28;20586;-67
2023/10/22 05:46:10;;;;;;;;;;;;;;;;;;5003341;28;20398;-69
2023/10/22 05:48:36;;;;;;;5.68;1.45;;;;;;;;;;5017773;28;20456;-66
2023/10/22 05:51:02;;;;;;;6.13;1.48;;;;;;;;;;5019321;28;20025;-66
2023/10/22 05:53:28;;;;;;;5.95;1.58;;;;;;;;;;5023940;28;20553;-66
2023/10/22 05:55:54;;;;;;;;;;;;;;;;;;5021434;28;20444;-66
2023/10/22 05:58:20;;;;;;;6.20;1.42;;;;;;;;;;5003288;28;19913;-66
2023/10/22 06:00:50;;;;;;;4.40;1.27;;;;;;;;;;5023379;28;20040;-67
2023/10/22 06:03:16;;;;;;;4.90;1.45;;;;;;;;;;5021176;28;20586;-68
2023/10/22 06:05:42;;;;;;;;;;;;;;;;;;5022935;28;20114;-67
2023/10/22 06:08:08;;;;;;;6.28;1.70;;;;;;;;;;5022436;28;19913;-67
2023/10/22 06:10:34;;;;;;;;;;;;;;;;;;5021699;28;20013;-67
2023/10/22 06:13:00;;;;;;;5.28;1.50;;;;;;;;;;5023189;28;19916;-68
2023/10/22 06:15:26;;;;;;;;;;;;;;;;;;5022303;28;20035;-67
2023/10/22 06:17:52;;;;;;;7.10;1.70;;;;;;;;;;5026450;28;19908;-67
2023/10/22 06:20:18;;;;;;;;;;;;;;;;;;5010773;28;20450;-67
2023/10/22 06:22:46;;;;;;;5.63;1.40;;;;;;;;;;5005920;28;20184;-70
2023/10/22 06:25:12;;;;;;;6.78;1.40;;;;;;;;;;5005019;28;20323;-68
2023/10/22 06:27:39;;;;;;;5.25;1.38;;;;;;;;;;5001625;28;20080;-67
2023/10/22 06:30:06;;;;;;;4.35;1.20;;;;;;;;;;5001905;28;20025;-67
2023/10/22 06:32:33;;;;;;;6.13;1.33;;;;;;;;;;5000167;28;20075;-66
2023/10/22 06:34:59;;;;;;;7.18;1.42;;;;;;;;;;5000978;28;20030;-67
2023/10/22 06:37:25;;;;;;;;;;;;;;;;;;4996149;28;20029;-67
2023/10/22 06:39:52;;;;;;;5.82;1.67;;;;;;;;;;5000544;28;19919;-68
2023/10/22 06:42:18;;;;;;;6.35;1.45;;;;;;;;;;4999271;28;20068;-68
2023/10/22 06:44:44;;;;;;;;;;;;;;;;;;5002474;28;20210;-67
2023/10/22 06:47:10;;;;;;;5.47;1.38;;;;;;;;;;5005405;28;21362;-67
2023/10/22 06:49:36;;;;;;;;;;;;;;;;;;4999492;28;20445;-67
2023/10/22 06:52:03;;;;;;;8.40;1.83;;;;;;;;;;5013904;28;20386;-68
2023/10/22 06:54:29;;;;;;;5.78;1.80;;;;;;;;;;4997410;28;20025;-67
2023/10/22 06:56:55;;;;;;;;;;;;;;;;;;5000512;28;20715;-68
2023/10/22 06:59:21;;;;;;;6.70;1.70;;;;;;;;;;4998911;28;19913;-68
2023/10/22 07:01:47;;;;;;;;;;;;;;;;;;5000553;28;20459;-67
2023/10/22 07:04:14;;;;;;;4.60;1.38;;;;;;;;;;5002508;28;19913;-68
2023/10/22 07:06:40;;;;;;;;;;;;;;;;;;4999741;28;20022;-67
2023/10/22 07:09:06;;;;;;;6.83;1.63;;;;;;;;;;5003221;28;19913;-68
2023/10/22 07:11:33;;;;;;;;;;;;;;;;;;4996655;28;20025;-66
2023/10/22 07:13:59;;;;;;;9.88;1.67;;;;;;;;;;5003350;28;19955;-68
2023/10/22 07:16:25;;;;;;;;;;;;;;;;;;4999586;28;20425;-69
2023/10/22 07:18:51;;;;;;;7.72;1.70;;;;;;;;;;5001670;28;19924;-67
2023/10/22 07:21:17;;;;;;;6.70;1.85;;;;;;;;;;4998781;28;20037;-67
2023/10/22 07:23:43;;;;;;;;;;;;;;;;;;5006789;28;20057;-67
2023/10/22 07:26:09;;;;;;;7.85;1.98;;;;;;;;;;5023734;28;20314;-67
2023/10/22 07:28:41;;;;;;;7.45;2.08;;;;;;;;;;5017070;28;20063;-67
2023/10/22 07:31:07;;;;;;;6.30;1.80;;;;;;;;;;5017032;28;20037;-68
2023/10/22 07:33:33;;;;;;;7.10;2.00;;;;;;;;;;5018077;28;20072;-69
2023/10/22 07:36:00;;;;;;;6.82;1.80;;;;;;;;;;5019254;28;20086;-67
2023/10/22 07:38:32;;;;;;;8.35;1.90;;;;;;;;;;5018663;28;20574;-68
2023/10/22 07:40:59;;;;;;;6.00;2.00;;;;;;;;;;5025422;28;20052;-67
2023/10/22 07:43:25;;;;;;;6.75;2.03;;;;;;;;;;5018276;28;20110;-67
2023/10/22 07:45:52;;;;;;;6.55;1.80;;;;;;;;;;5004559;28;20041;-67
2023/10/22 07:48:18;;;;;;;6.03;1.67;;;;;;;;;;5020087;28;20033;-67
2023/10/22 07:50:44;;;;;;;7.53;1.98;;;;;;;;;;5019147;28;20115;-67
2023/10/22 07:53:10;;;;;;;6.45;1.60;;;;;;;;;;5024115;28;20131;-66
2023/10/22 07:55:38;;;;;;;6.15;2.17;;;;;;;;;;5021307;28;20040;-67
2023/10/22 07:58:04;;;;;;;9.13;2.53;;;;;;;;;;5025898;28;20183;-67
2023/10/22 08:00:30;;;;;;;6.13;1.70;;;;;;;;;;5020553;28;20025;-67
2023/10/22 08:02:57;;;;;;;7.97;2.00;;;;;;;;;;5023499;28;20090;-69
2023/10/22 08:05:23;;;;;;;6.60;1.80;;;;;;;;;;5004839;28;20569;-68
2023/10/22 08:07:49;;;;;;;7.75;2.13;;;;;;;;;;5024061;28;20471;-68
2023/10/22 08:10:16;;;;;;;6.45;1.95;;;;;;;;;;5023898;28;20035;-68
2023/10/22 08:12:42;;;;;;;7.05;2.13;;;;;;;;;;5024185;28;20300;-68
2023/10/22 08:15:09;;;;;;;7.85;2.35;;;;;;;;;;5025332;28;20388;-68
2023/10/22 08:17:35;;;;;;;8.13;2.90;;;;;;;;;;5019455;28;21191;-67
2023/10/22 08:20:01;;;;;;;8.98;2.53;;;;;;;;;;5011155;28;20033;-67
2023/10/22 08:22:27;;;;;;;8.75;2.42;;;;;;;;;;5021873;28;20051;-68
2023/10/22 08:24:53;;;;;;;10.25;3.90;;;;;;;;;;5007879;28;20056;-67
2023/10/22 08:27:19;;;;;;;10.45;4.10;;;;;;;;;;5021248;28;20276;-68
2023/10/22 08:29:47;;;;;;;11.52;5.20;;;;;;;;;;5022666;28;20044;-68
2023/10/22 08:32:13;;;;;;;9.25;3.58;;;;;;;;;;5020526;28;20033;-68
2023/10/22 08:34:39;;;;;;;8.80;2.90;;;;;;;;;;5019070;28;20037;-67
2023/10/22 08:37:05;;;;;;;7.50;2.88;;;;;;;;;;5023193;28;20030;-68
2023/10/22 08:39:31;;;;;;;8.20;2.42;;;;;;;;;;5021035;28;20090;-67
2023/10/22 08:42:02;;;;;;;6.65;1.90;;;;;;;;;;5022933;28;20470;-69
2023/10/22 08:44:34;;;;;;;6.80;2.17;;;;;;;;;;5020407;28;20405;-69
2023/10/22 08:47:00;;;;;;;6.63;2.20;;;;;;;;;;5022280;28;20047;-69
2023/10/22 08:49:27;;;;;;;7.38;2.53;;;;;;;;;;5021041;28;20046;-69
2023/10/22 08:51:53;;;;;;;8.57;2.78;;;;;;;;;;5023108;28;20350;-68
2023/10/22 08:54:22;;;;;;;8.02;2.40;;;;;;;;;;5020123;28;20483;-68
2023/10/22 08:56:49;;;;;;;7.95;2.35;;;;;;;;;;5005347;28;20025;-69
2023/10/22 08:59:16;;;;;;;8.25;2.50;;;;;;;;;;5020559;28;20033;-67
2023/10/22 09:01:42;;;;;;;7.20;2.38;;;;;;;;;;5003074;28;20604;-67
2023/10/22 09:04:08;;;;;;;7.60;2.10;;;;;;;;;;5005810;28;20572;-67
2023/10/22 09:06:34;;;;;;;9.93;2.42;;;;;;;;;;5000590;28;20128;-67
2023/10/22 09:09:02;;;;;;;7.32;1.80;;;;;;;;;;5004887;28;20052;-68
2023/10/22 09:11:28;;;;;;;9.82;2.20;;;;;;;;;;5018906;28;20133;-67
2023/10/22 09:13:54;;;;;;;7.25;1.90;;;;;;;;;;5022664;28;20123;-67
2023/10/22 09:16:27;;;;;;;7.53;2.00;;;;;;;;;;5000021;28;20616;-67
2023/10/22 09:18:54;;;;;;;7.10;1.83;;;;;;;;;;5005728;28;20033;-68
2023/10/22 09:21:20;;;;;;;6.05;1.75;;;;;;;;;;5002448;28;20036;-67
2023/10/22 09:24:03;;;;;;;7.07;2.20;;;;;;;;;;5002064;28;20112;-68
2023/10/22 09:26:56;;;;;;;6.93;1.90;;;;;;;;;;5018687;28;20036;-68
2023/10/22 09:29:23;;;;;;;6.75;1.80;;;;;;;;;;5013748;28;20337;-68
2023/10/22 09:31:54;;;;;;;7.70;2.42;;;;;;;;;;5018845;28;20033;-68
2023/10/22 09:34:27;;;;;;;7.85;2.30;;;;;;;;;;5020599;28;20747;-67
2023/10/22 09:36:54;;;;;;;7.05;2.10;;;;;;;;;;5020364;28;20392;-70
2023/10/22 09:39:42;;;;;;;6.65;1.98;;;;;;;;;;5002708;28;20444;-67
2023/10/22 09:42:09;;;;;;;6.30;1.90;;;;;;;;;;5024066;28;20233;-67
2023/10/22 09:44:37;;;;;;;10.10;4.97;;;;;;;;;;5019369;28;20996;-68
2023/10/22 09:47:06;;;;;;;9.32;2.88;;;;;;;;;;5021934;28;20402;-68
2023/10/22 09:49:38;;;;;;;8.35;3.05;;;;;;;;;;5018929;28;20041;-68
2023/10/22 09:52:06;;;;;;;7.93;3.20;;;;;;;;;;5023264;28;20078;-68
2023/10/22 09:54:39;;;;;;;7.68;2.20;;;;;;;;;;5023030;28;20053;-68
2023/10/22 09:57:09;;;;;;;7.57;2.60;;;;;;;;;;5025693;28;20024;-68
2023/10/22 09:59:35;;;;;;;9.45;3.05;;;;;;;;;;5020906;28;22301;-68
2023/10/22 10:02:02;;;;;;;9.73;3.65;;;;;;;;;;5027017;28;20465;-68
2023/10/22 10:04:32;;;;;;;9.30;3.30;;;;;;;;;;5001103;28;20048;-68
2023/10/22 10:07:01;;;;;;;10.85;4.50;;;;;;;;;;5025627;28;20117;-68
2023/10/22 10:09:28;;;;;;;13.20;5.57;;;;;;;;;;5019285;28;20494;-68
2023/10/22 10:11:54;;;;;;;12.05;5.22;;;;;;;;;;5022628;28;20060;-69
2023/10/22 10:14:41;;;;;;;11.50;5.20;;;;;;;;;;5001524;28;20040;-69
2023/10/22 10:17:07;;;;;;;10.65;4.50;;;;;;;;;;5020485;28;20608;-68
2023/10/22 10:19:33;;;;;;;9.48;3.83;;;;;;;;;;5020948;28;20368;-68
2023/10/22 10:21:59;;;;;;;9.48;4.00;;;;;;;;;;5020832;28;20025;-68
2023/10/22 10:24:30;;;;;;;12.13;4.47;;;;;;;;;;5001135;28;20308;-68
2023/10/22 10:26:56;;;;;;;11.05;4.85;;;;;;;;;;5002716;28;20056;-68
2023/10/22 10:29:22;;;;;;;9.45;4.45;;;;;;;;;;5000442;28;20025;-68
2023/10/22 10:31:51;;;;;;;11.75;4.53;;;;;;;;;;5002909;28;20025;-70
2023/10/22 10:34:22;;;;;;;10.23;4.07;;;;;;;;;;4999237;28;20490;-68
2023/10/22 10:36:49;;;;;;;10.77;4.25;;;;;;;;;;5000948;28;20109;-68
2023/10/22 10:39:34;;;;;;;10.68;4.85;;;;;;;;;;4999585;28;20036;-68
2023/10/22 10:42:00;;;;;;;15.50;8.20;;;;;;;;;;5001039;28;20487;-68
2023/10/22 10:44:29;;;;;;;16.13;7.25;;;;;;;;;;4999922;28;20431;-68
2023/10/22 10:46:55;;;;;;;15.57;6.82;;;;;;;;;;5003667;28;20056;-68
2023/10/22 10:49:40;;;;;;;10.55;5.10;;;;;;;;;;4997136;28;20152;-68
2023/10/22 10:52:06;;;;;;;11.80;4.55;;;;;;;;;;5001406;28;20033;-68
2023/10/22 10:54:32;;;;;;;10.98;4.00;;;;;;;;;;5001575;28;20041;-68
2023/10/22 10:56:59;;;;;;;10.00;4.20;;;;;;;;;;5003596;28;20116;-68
2023/10/22 10:59:26;;;;;;;10.63;4.38;;;;;;;;;;4996760;28;20087;-67
2023/10/22 11:01:59;;;;;;;10.43;4.10;;;;;;;;;;5003356;28;20144;-67
2023/10/22 11:04:26;;;;;;;9.48;3.70;;;;;;;;;;5001266;28;20033;-68
2023/10/22 11:06:52;;;;;;;10.48;3.88;;;;;;;;;;5001318;28;20222;-69
2023/10/22 11:09:18;;;;;;;8.63;3.53;;;;;;;;;;4996315;28;20021;-68
2023/10/22 11:12:04;;;;;;;11.80;4.82;;;;;;;;;;5018913;28;20103;-68
2023/10/22 11:14:30;;;;;;;;;;;;;;;;;;4997841;28;20021;-68
2023/10/22 11:16:57;;;;;;;9.70;4.20;;;;;;;;;;5003947;28;19996;-68
2023/10/22 11:19:30;;;;;;;9.70;3.55;;;;;;;;;;4999580;28;20029;-68
2023/10/22 11:21:56;;;;;;;10.13;3.65;;;;;;;;;;5000640;28;20985;-68
2023/10/22 11:24:28;;;;;;;11.48;4.05;;;;;;;;;;5008498;28;20098;-68
2023/10/22 11:26:55;;;;;;;9.30;3.85;;;;;;;;;;5010426;28;20029;-69
2023/10/22 11:29:21;;;;;;;11.52;4.53;;;;;;;;;;5026645;28;20044;-68
2023/10/22 11:31:54;;;;;;;11.20;4.60;;;;;;;;;;5015379;28;20043;-68
2023/10/22 11:34:21;;;;;;;9.63;4.03;;;;;;;;;;5024033;28;20025;-68
2023/10/22 11:36:47;;;;;;;12.32;4.60;;;;;;;;;;5026123;28;20053;-68
2023/10/22 11:39:20;;;;;;;10.40;4.03;;;;;;;;;;5012551;28;20579;-68
2023/10/22 11:41:47;;;;;;;9.55;3.95;;;;;;;;;;5000440;28;20349;-68
2023/10/22 11:44:30;;;;;;;9.88;3.95;;;;;;;;;;5014062;28;20021;-69
2023/10/22 11:46:57;;;;;;;9.60;3.70;;;;;;;;;;5028009;28;20033;-68
2023/10/22 11:49:24;;;;;;;9.35;3.47;;;;;;;;;;5021252;28;20025;-68
2023/10/22 11:51:50;;;;;;;8.68;3.40;;;;;;;;;;5030780;28;20147;-68
2023/10/22 11:54:16;;;;;;;10.70;3.88;;;;;;;;;;5026558;28;20196;-69
2023/10/22 11:56:42;;;;;;;9.07;3.60;;;;;;;;;;5016435;28;20029;-69
2023/10/22 11:59:08;;;;;;;8.70;3.63;;;;;;;;;;5011488;28;20511;-68
2023/10/22 12:01:34;;;;;;;10.77;3.75;;;;;;;;;;5025621;28;20454;-68
2023/10/22 12:04:02;;;;;;;9.07;3.75;;;;;;;;;;5012321;28;20107;-68
2023/10/22 12:06:28;;;;;;;8.55;3.53;;;;;;;;;;5008668;28;20037;-68
2023/10/22 12:08:55;;;;;;;10.68;4.03;;;;;;;;;;5030359;28;20558;-69
2023/10/22 12:11:21;;;;;;;10.30;3.83;;;;;;;;;;5023216;28;20107;-69
2023/10/22 12:13:47;;;;;;;8.02;2.60;;;;;;;;;;5028013;28;20326;-68
2023/10/22 12:16:13;;;;;;;8.27;2.30;;;;;;;;;;5028708;28;20025;-69
2023/10/22 12:18:39;;;;;;;7.75;2.67;;;;;;;;;;5025327;28;20028;-69
2023/10/22 12:21:06;;;;;;;8.77;3.47;;;;;;;;;;5028134;28;20053;-70
2023/10/22 12:23:32;;;;;;;7.95;3.10;;;;;;;;;;5026207;28;20413;-69
2023/10/22 12:25:58;;;;;;;9.05;2.53;;;;;;;;;;5025918;28;20100;-69
2023/10/22 12:28:26;;;;;;;8.50;2.20;;;;;;;;;;5008278;28;20029;-68
2023/10/22 12:30:52;;;;;;;8.13;2.60;;;;;;;;;;5030544;28;20025;-68
2023/10/22 12:33:18;;;;;;;9.27;3.45;;;;;;;;;;5027090;28;20021;-68
2023/10/22 12:35:44;;;;;;;9.35;3.67;;;;;;;;;;5030674;28;20064;-68
2023/10/22 12:38:10;;;;;;;8.80;3.30;;;;;;;;;;5026322;28;20055;-68
2023/10/22 12:40:36;;;;;;;8.20;3.40;;;;;;;;;;5020638;28;20143;-67
2023/10/22 12:43:04;;;;;;;10.18;3.53;;;;;;;;;;5026575;28;20115;-68
2023/10/22 12:45:30;;;;;;;8.90;3.42;;;;;;;;;;5020515;28;20275;-69
2023/10/22 12:47:56;;;;;;;7.90;3.08;;;;;;;;;;5006970;28;20033;-68
2023/10/22 12:50:22;;;;;;;7.72;2.75;;;;;;;;;;5020984;28;20336;-69
2023/10/22 12:52:48;;;;;;;9.32;2.95;;;;;;;;;;5005424;28;20433;-68
2023/10/22 12:55:14;;;;;;;8.75;2.47;;;;;;;;;;5024654;28;20110;-68
2023/10/22 12:57:40;;;;;;;7.32;2.40;;;;;;;;;;5024934;28;20064;-67
2023/10/22 13:00:12;;;;;;;6.88;2.10;;;;;;;;;;5021689;28;20068;-67
2023/10/22 13:02:38;;;;;;;8.68;2.63;;;;;;;;;;5020667;28;20514;-70
2023/10/22 13:05:07;;;;;;;7.05;2.70;;;;;;;;;;5022071;28;20082;-68
2023/10/22 13:07:33;;;;;;;7.97;2.65;;;;;;;;;;5018249;28;20052;-68
2023/10/22 13:09:59;;;;;;;6.82;2.58;;;;;;;;;;5022787;28;20025;-68
2023/10/22 13:12:26;;;;;;;8.25;2.80;;;;;;;;;;5005279;28;20071;-67
2023/10/22 13:14:53;;;;;;;8.93;3.97;;;;;;;;;;5004473;28;20074;-67
2023/10/22 13:17:20;;;;;;;11.10;5.32;;;;;;;;;;5017787;28;20032;-67
2023/10/22 13:19:46;;;;;;;9.30;3.35;;;;;;;;;;5019144;28;20052;-68
2023/10/22 13:22:12;;;;;;;10.45;3.55;;;;;;;;;;5019400;28;20222;-68
2023/10/22 13:24:38;;;;;;;9.25;3.75;;;;;;;;;;5005234;28;20509;-68
2023/10/22 13:27:04;;;;;;;8.85;3.72;;;;;;;;;;5002759;28;20033;-67
2023/10/22 13:29:31;;;;;;;9.73;3.67;;;;;;;;;;5017434;28;20029;-67
2023/10/22 13:31:57;;;;;;;9.98;4.20;;;;;;;;;;5017462;28;20065;-68
2023/10/22 13:34:23;;;;;;;9.10;3.58;;;;;;;;;;5001346;28;20058;-67
2023/10/22 13:36:49;;;;;;;9.05;3.78;;;;;;;;;;5019131;28;20146;-67
2023/10/22 13:39:16;;;;;;;10.07;4.10;;;;;;;;;;5001660;28;20104;-68
2023/10/22 13:41:43;;;;;;;9.18;3.00;;;;;;;;;;5018022;28;20541;-67
2023/10/22 13:44:10;;;;;;;8.18;2.97;;;;;;;;;;5018336;28;20039;-67
2023/10/22 13:46:37;;;;;;;12.05;4.00;;;;;;;;;;4999110;28;20052;-67
2023/10/22 13:49:03;;;;;;;8.73;2.90;;;;;;;;;;5018380;28;20109;-68
2023/10/22 13:51:29;;;;;;;8.68;3.17;;;;;;;;;;5018226;28;20283;-68
2023/10/22 13:53:55;;;;;;;13.35;5.95;;;;;;;;;;5017110;28;20099;-67
2023/10/22 13:56:21;;;;;;;7.28;3.00;;;;;;;;;;5004656;28;22091;-67
2023/10/22 13:58:47;;;;;;;7.60;2.50;;;;;;;;;;5020705;28;20029;-69
2023/10/22 14:01:13;;;;;;;7.97;2.75;;;;;;;;;;5021559;28;20632;-67
2023/10/22 14:03:40;;;;;;;7.10;2.67;;;;;;;;;;5014778;28;20037;-68
2023/10/22 14:06:06;;;;;;;8.88;3.45;;;;;;;;;;5016074;28;20239;-68
2023/10/22 14:08:33;;;;;;;7.95;2.67;;;;;;;;;;5016338;28;20025;-67
2023/10/22 14:10:59;;;;;;;7.47;2.33;;;;;;;;;;5019605;28;20310;-68
2023/10/22 14:13:25;;;;;;;7.53;2.67;;;;;;;;;;5016633;28;20079;-69
2023/10/22 14:15:51;;;;;;;7.78;2.28;;;;;;;;;;5022538;28;20203;-69
2023/10/22 15:58:30;;;;;;;19.67;11.38;;;;;;;;;;6086929;22;20088;-67
2023/10/22 16:00:56;;;;;;;22.40;14.60;;;;;;;;;;4964386;28;20033;-67
2023/10/22 16:03:22;;;;;;;16.67;8.80;;;;;;;;;;4960424;28;20033;-67
2023/10/22 16:05:48;;;;;;;14.55;7.70;;;;;;;;;;4943858;28;20042;-67
2023/10/22 16:08:14;;;;;;;18.73;9.77;;;;;;;;;;4943329;28;20038;-67
2023/10/22 16:10:40;;;;;;;16.48;8.63;;;;;;;;;;4959021;28;20638;-68
2023/10/22 16:13:06;;;;;;;15.27;8.27;;;;;;;;;;4963983;28;20116;-68
2023/10/22 16:15:33;;;;;;;14.20;8.75;;;;;;;;;;4960208;28;20091;-67
2023/10/22 16:17:59;;;;;;;17.20;10.95;;;;;;;;;;4964371;28;20543;-68
2023/10/22 16:20:25;;;;;;;15.68;8.85;;;;;;;;;;4942733;28;20185;-68
2023/10/22 16:22:51;;;;;;;15.95;6.90;;;;;;;;;;4951002;28;20459;-67
2023/10/22 16:25:17;;;;;;;12.27;5.30;;;;;;;;;;4943129;28;20525;-67
2023/10/22 16:27:43;;;;;;;10.52;4.78;;;;;;;;;;4941256;28;20125;-68
2023/10/22 16:30:10;;;;;;;11.07;5.22;;;;;;;;;;4925284;28;20100;-67
2023/10/22 16:32:36;;;;;;;11.70;4.68;;;;;;;;;;4925971;28;20421;-67
2023/10/22 16:35:02;;;;;;;14.50;5.97;;;;;;;;;;4937655;28;20035;-67
2023/10/22 16:37:28;;;;;;;13.10;6.07;;;;;;;;;;4940868;28;20037;-68